Pagrindinis puslapis
METAR-TAF:

METAR-TAF

Oro uostai :

Al Khardj, Saudo Arabija

platuma: 24-03-19N, ilguma: 047-33-49E, Aukštis: 503 m

Dabartinis oras

Ataskaita buvo paskelbta 6 valandos ir 14 minutes, ne 22:00 UTC
Vėjas 6 kt iš Rytų
Temperatūra 31°C
Drėgmė 13%
Slėgis 1011 hPa
Matomumas 10 km arba daugiau
nėra debesų žemiau 1500 m ir nėra kamuolinių lietaus debesų

METAR: OEKJ 282200Z 09006KT CAVOK 31/M01 Q1011

Laikas: 07:14 (04:14 UTC)

Prognozė

Ataskaita buvo paskelbta 5 valandos ir 14 minutes, ne 23:00 UTC
Prognozė galioja nuo 29 metu 00 UTC su 30 metu 06 UTC
Vėjas 6 kt iš Vakarų/Šiaurės Vakarų
Matomumas 10 km arba daugiau
nėra debesų žemiau 1500 m ir nėra kamuolinių lietaus debesų
Tapsmas
nuo 29 metu 07 UTC su 29 metu 09 UTC
Vėjas 15 kt iš Šiaurės/Šiaurės Rytų
Matomumas: 8000 m
Laikinai
nuo 29 metu 06 UTC su 29 metu 16 UTC
Matomumas: 4500 m
dulkės, Dulkes pustymas

TAF: OEKJ 282300Z 2900/3006 30006KT CAVOK BECMG 2907/2909 03015KT 8000 NSC TEMPO 2906/2916 4500 DU BLDU

Orai ataskaitas ir orų prognozės (METAR, TAF).

turimą stotys yra geltonos ir raudonos taškus žemėlapyje.

Perkelti pele per norėdami pamatyti stoties vardą.

Tada spustelėkite, norėdami matyti oro stebėjimo ir prognozės.

Norėdami pakeisti žemėlapį: spustelėkite ant žalios mygtukų su juodo kryžiaus žemyn,; žalią mygtuką su brūkšneliu, jei norite nutolinti; arba žalių rodyklių gretimoms žemėlapius.


METAR-TAF: